createdAt,value
2023-03-14T00:00:25.485Z,-4.10
2023-03-14T00:03:50.067Z,-4.12
2023-03-14T00:07:39.292Z,-4.14
2023-03-14T00:11:19.780Z,-4.14
2023-03-14T00:14:50.598Z,-4.13
2023-03-14T00:18:19.036Z,-4.12
2023-03-14T00:21:59.307Z,-4.12
2023-03-14T00:24:59.665Z,-4.11
2023-03-14T00:28:32.285Z,-4.11
2023-03-14T00:32:14.558Z,-4.10
2023-03-14T00:35:21.886Z,-4.08
2023-03-14T00:39:11.120Z,-4.06
2023-03-14T00:43:00.309Z,-4.06
2023-03-14T00:46:49.518Z,-3.97
2023-03-14T00:54:20.347Z,-3.67
2023-03-14T00:58:09.743Z,-3.52
2023-03-14T01:01:54.260Z,-3.46
2023-03-14T01:05:43.636Z,-3.40
2023-03-14T01:09:32.572Z,-3.39
2023-03-14T01:13:21.831Z,-3.41
2023-03-14T01:17:03.475Z,-3.42
2023-03-14T01:20:52.762Z,-3.46
2023-03-14T01:24:42.097Z,-3.49
2023-03-14T01:28:30.169Z,-3.52
2023-03-14T01:32:09.302Z,-3.56
2023-03-14T01:35:06.688Z,-3.60
2023-03-14T01:38:54.505Z,-3.62
2023-03-14T01:42:43.719Z,-3.63
2023-03-14T01:46:46.393Z,-3.66
2023-03-14T01:50:04.679Z,-3.70
2023-03-14T01:52:50.212Z,-3.71
2023-03-14T01:56:38.319Z,-3.73
2023-03-14T02:00:27.573Z,-3.74
2023-03-14T02:04:09.326Z,-3.76
2023-03-14T02:08:04.854Z,-3.77
2023-03-14T02:11:54.110Z,-3.79
2023-03-14T02:16:01.564Z,-3.82
2023-03-14T02:19:59.704Z,-3.83
2023-03-14T02:23:48.977Z,-3.76
2023-03-14T02:27:47.267Z,-3.65
2023-03-14T02:31:36.569Z,-3.50
2023-03-14T02:35:24.562Z,-3.40
2023-03-14T02:39:07.930Z,-3.35
2023-03-14T02:42:57.215Z,-3.34
2023-03-14T02:46:37.568Z,-3.35
2023-03-14T02:50:26.518Z,-3.37
2023-03-14T02:53:59.205Z,-3.41
2023-03-14T02:57:40.925Z,-3.44
2023-03-14T03:01:22.977Z,-3.49
2023-03-14T03:05:03.649Z,-3.52
2023-03-14T03:08:52.860Z,-3.55
2023-03-14T03:12:42.110Z,-3.60
2023-03-14T03:16:22.718Z,-3.63
2023-03-14T03:20:11.757Z,-3.67
2023-03-14T03:24:01.161Z,-3.70
2023-03-14T03:27:49.352Z,-3.71
2023-03-14T03:31:16.965Z,-3.72
2023-03-14T03:34:39.028Z,-3.70
2023-03-14T03:37:55.563Z,-3.66
2023-03-14T03:41:25.142Z,-3.63
2023-03-14T03:44:50.897Z,-3.60
2023-03-14T03:48:27.097Z,-3.51
2023-03-14T03:51:59.483Z,-3.41
2023-03-14T03:55:40.312Z,-3.26
2023-03-14T03:59:18.256Z,-3.15
2023-03-14T04:02:32.192Z,-3.08
2023-03-14T04:06:21.730Z,-3.09
2023-03-14T04:09:25.336Z,-3.07
2023-03-14T04:12:49.474Z,-3.10
2023-03-14T04:16:18.470Z,-3.15
2023-03-14T04:19:23.150Z,-3.21
2023-03-14T04:22:56.868Z,-3.26
2023-03-14T04:26:24.022Z,-3.34
2023-03-14T04:29:35.537Z,-3.39
2023-03-14T04:32:56.147Z,-3.43
2023-03-14T04:36:45.568Z,-3.47
2023-03-14T04:40:28.442Z,-3.50
2023-03-14T04:44:17.617Z,-3.51
2023-03-14T04:47:50.403Z,-3.52
2023-03-14T04:50:35.950Z,-3.51
2023-03-14T04:53:57.973Z,-3.52
2023-03-14T04:57:18.676Z,-3.51
2023-03-14T05:00:37.159Z,-3.48
2023-03-14T05:04:08.745Z,-3.44
2023-03-14T05:07:40.485Z,-3.35
2023-03-14T05:11:25.405Z,-3.04
2023-03-14T05:15:17.085Z,-2.62
2023-03-14T05:18:41.010Z,-2.11
2023-03-14T05:21:48.584Z,-1.78
2023-03-14T05:25:00.485Z,-1.72
2023-03-14T05:28:55.440Z,-1.67
2023-03-14T05:31:53.921Z,-1.57
2023-03-14T05:35:04.477Z,-1.50
2023-03-14T05:38:41.032Z,-1.45
2023-03-14T05:42:03.672Z,-1.38
2023-03-14T05:45:33.883Z,-1.36
2023-03-14T05:49:04.893Z,-1.33
2023-03-14T05:52:05.692Z,-1.29
2023-03-14T05:56:10.265Z,-1.20
2023-03-14T05:59:25.799Z,-0.92
2023-03-14T06:02:33.037Z,-0.06
2023-03-14T06:05:27.162Z,0.96
2023-03-14T06:08:17.953Z,1.78
2023-03-14T06:11:03.909Z,2.52
2023-03-14T06:13:38.172Z,3.28
2023-03-14T06:16:16.584Z,3.98
2023-03-14T06:19:11.455Z,4.77
2023-03-14T06:21:40.559Z,5.68
2023-03-14T06:24:09.234Z,6.34
2023-03-14T06:26:42.745Z,7.03
2023-03-14T06:29:14.632Z,7.56
2023-03-14T06:32:03.757Z,8.20
2023-03-14T06:34:40.013Z,8.81
2023-03-14T06:37:08.765Z,9.41
2023-03-14T06:39:38.642Z,9.91
2023-03-14T06:42:12.297Z,10.16
2023-03-14T06:44:41.114Z,10.73
2023-03-14T06:47:09.589Z,11.15
2023-03-14T06:49:40.987Z,11.64
2023-03-14T06:52:09.983Z,12.19
2023-03-14T06:54:38.428Z,12.48
2023-03-14T06:57:06.705Z,12.64
2023-03-14T06:59:35.092Z,12.76
2023-03-14T07:02:03.959Z,13.28
2023-03-14T07:04:35.251Z,13.32
2023-03-14T07:07:03.731Z,13.71
2023-03-14T07:09:35.387Z,13.95
2023-03-14T07:12:05.356Z,14.07
2023-03-14T07:14:33.867Z,14.37
2023-03-14T07:17:02.289Z,14.58
2023-03-14T07:19:30.820Z,14.89
2023-03-14T07:35:21.677Z,16.99
2023-03-14T07:37:50.165Z,17.13
2023-03-14T07:40:20.487Z,17.10
2023-03-14T07:42:49.498Z,17.10
2023-03-14T07:45:25.124Z,16.99
2023-03-14T07:47:53.693Z,17.06
2023-03-14T07:50:22.013Z,17.35
2023-03-14T07:52:53.725Z,17.20
2023-03-14T07:55:22.601Z,17.32
2023-03-14T07:57:50.957Z,17.40
2023-03-14T08:00:19.947Z,17.79
2023-03-14T08:02:48.347Z,17.55
2023-03-14T08:05:16.881Z,17.71
2023-03-14T08:07:45.221Z,17.59
2023-03-14T08:10:16.966Z,17.76
2023-03-14T08:12:47.942Z,17.33
2023-03-14T08:15:16.249Z,16.89
2023-03-14T08:17:51.927Z,17.05
2023-03-14T08:20:24.205Z,17.57
2023-03-14T08:22:52.412Z,17.58
2023-03-14T08:25:20.746Z,17.71
2023-03-14T08:27:49.195Z,17.84
2023-03-14T08:30:19.273Z,17.79
2023-03-14T08:32:47.895Z,17.85
2023-03-14T08:35:17.145Z,18.26
2023-03-14T08:37:45.520Z,18.06
2023-03-14T08:40:14.387Z,17.97
2023-03-14T08:42:43.351Z,17.93
2023-03-14T08:45:16.112Z,17.84
2023-03-14T08:47:45.857Z,17.76
2023-03-14T08:50:16.438Z,18.18
2023-03-14T08:52:45.098Z,18.44
2023-03-14T08:55:13.464Z,18.16
2023-03-14T08:57:41.881Z,18.54
2023-03-14T09:00:13.599Z,18.93
2023-03-14T09:02:43.079Z,19.12
2023-03-14T09:05:12.295Z,18.78
2023-03-14T09:07:41.815Z,18.85
2023-03-14T09:10:11.639Z,19.17
2023-03-14T09:12:39.953Z,18.96
2023-03-14T09:15:09.624Z,18.90
2023-03-14T09:17:38.111Z,18.38
2023-03-14T09:20:10.174Z,18.86
2023-03-14T09:22:38.489Z,19.46
2023-03-14T09:25:07.796Z,19.54
2023-03-14T09:27:36.109Z,19.74
2023-03-14T09:30:05.726Z,19.92
2023-03-14T09:32:33.964Z,20.11
2023-03-14T09:35:02.469Z,20.63
2023-03-14T09:37:30.921Z,20.60
2023-03-14T09:39:59.220Z,20.73
2023-03-14T09:42:28.920Z,20.70
2023-03-14T09:45:08.932Z,20.58
2023-03-14T09:47:41.448Z,20.74
2023-03-14T09:50:16.984Z,20.51
2023-03-14T09:52:57.337Z,21.19
2023-03-14T09:55:25.712Z,21.85
2023-03-14T09:58:01.204Z,22.03
2023-03-14T10:00:31.892Z,22.21
2023-03-14T10:03:26.668Z,22.68
2023-03-14T10:05:57.224Z,22.65
2023-03-14T10:08:25.675Z,22.28
2023-03-14T10:10:54.906Z,22.53
2023-03-14T10:13:27.153Z,22.83
2023-03-14T10:16:00.548Z,22.86
2023-03-14T10:18:31.547Z,23.11
2023-03-14T10:21:18.018Z,22.93
2023-03-14T10:23:48.000Z,22.58
2023-03-14T10:26:24.460Z,23.07
2023-03-14T10:28:54.813Z,22.80
2023-03-14T10:31:27.257Z,22.75
2023-03-14T10:34:05.450Z,22.25
2023-03-14T10:36:36.224Z,21.91
2023-03-14T10:39:35.612Z,22.28
2023-03-14T10:42:12.233Z,22.26
2023-03-14T10:44:42.487Z,22.39
2023-03-14T10:47:20.547Z,22.02
2023-03-14T10:49:49.056Z,21.52
2023-03-14T10:52:30.905Z,21.30
2023-03-14T10:55:03.349Z,21.67
2023-03-14T10:57:31.809Z,21.47
2023-03-14T11:00:00.366Z,21.75
2023-03-14T11:02:44.195Z,22.15
2023-03-14T11:05:31.593Z,21.72
2023-03-14T11:08:10.708Z,21.54
2023-03-14T11:10:44.129Z,21.46
2023-03-14T11:13:40.519Z,20.99
2023-03-14T11:16:28.181Z,20.43
2023-03-14T11:19:24.377Z,20.00
2023-03-14T11:22:33.066Z,19.52
2023-03-14T11:25:21.907Z,19.23
2023-03-14T11:28:03.112Z,18.73
2023-03-14T11:31:11.979Z,18.15
2023-03-14T11:34:19.941Z,17.87
2023-03-14T11:37:36.989Z,17.39
2023-03-14T11:40:29.549Z,17.13
2023-03-14T11:44:12.917Z,16.82
2023-03-14T11:47:11.398Z,16.35
2023-03-14T11:50:03.729Z,16.04
2023-03-14T11:52:51.782Z,15.66
2023-03-14T11:55:39.164Z,15.59
2023-03-14T11:58:53.558Z,15.46
2023-03-14T12:01:44.330Z,15.27
2023-03-14T12:04:20.675Z,15.19
2023-03-14T12:07:03.253Z,14.96
2023-03-14T12:09:52.681Z,15.08
2023-03-14T12:12:30.138Z,15.17
2023-03-14T12:15:26.123Z,15.08
2023-03-14T12:18:23.548Z,15.07
2023-03-14T12:21:22.247Z,15.06
2023-03-14T12:23:59.161Z,15.02
2023-03-14T12:26:44.572Z,14.91
2023-03-14T12:29:20.019Z,14.84
2023-03-14T12:32:12.588Z,14.74
2023-03-14T12:34:50.381Z,14.79
2023-03-14T12:37:46.577Z,14.76
2023-03-14T12:40:40.609Z,14.69
2023-03-14T12:43:57.393Z,14.61
2023-03-14T12:47:05.388Z,14.53
2023-03-14T12:49:39.182Z,14.52
2023-03-14T12:52:55.552Z,14.53
2023-03-14T12:56:12.507Z,14.58
2023-03-14T12:59:15.886Z,14.76
2023-03-14T13:01:57.393Z,14.82
2023-03-14T13:04:47.205Z,14.90
2023-03-14T13:07:50.954Z,15.02
2023-03-14T13:10:38.206Z,15.11
2023-03-14T13:13:07.546Z,15.22
2023-03-14T13:15:44.810Z,15.26
2023-03-14T13:18:18.069Z,15.33
2023-03-14T13:21:00.329Z,15.36
2023-03-14T13:23:31.502Z,15.46
2023-03-14T13:26:01.773Z,15.53
2023-03-14T13:28:32.265Z,15.56
2023-03-14T13:31:03.546Z,15.61
2023-03-14T13:33:34.252Z,15.68
2023-03-14T13:36:06.587Z,15.79
2023-03-14T13:38:37.435Z,15.86
2023-03-14T13:41:08.792Z,15.85
2023-03-14T13:43:42.243Z,15.84
2023-03-14T13:46:21.472Z,15.73
2023-03-14T13:48:53.471Z,15.63
2023-03-14T13:51:23.591Z,15.51
2023-03-14T13:53:54.317Z,15.47
2023-03-14T13:56:25.527Z,15.36
2023-03-14T13:58:54.228Z,15.28
2023-03-14T14:01:38.956Z,15.18
2023-03-14T14:04:15.425Z,15.09
2023-03-14T14:06:59.229Z,14.98
2023-03-14T14:09:31.456Z,14.95
2023-03-14T14:12:15.489Z,14.92
2023-03-14T14:14:48.123Z,14.86
2023-03-14T14:17:20.661Z,14.85
2023-03-14T14:19:49.952Z,14.84
2023-03-14T14:22:19.371Z,14.78
2023-03-14T14:24:48.852Z,14.80
2023-03-14T14:27:36.133Z,14.79
2023-03-14T14:30:32.519Z,14.82
2023-03-14T14:33:19.708Z,14.89
2023-03-14T14:35:54.730Z,14.95
2023-03-14T14:38:23.809Z,14.99
2023-03-14T14:40:55.954Z,15.00
2023-03-14T14:43:28.490Z,15.02
2023-03-14T14:45:59.205Z,15.06
2023-03-14T14:48:29.175Z,15.10
2023-03-14T14:51:00.549Z,15.12
2023-03-14T14:53:37.742Z,15.13
2023-03-14T14:56:24.424Z,15.11
2023-03-14T14:59:00.708Z,15.11
2023-03-14T15:01:40.465Z,15.03
2023-03-14T15:04:14.948Z,14.96
2023-03-14T15:06:50.336Z,14.86
2023-03-14T15:09:19.163Z,14.83
2023-03-14T15:11:48.531Z,14.79
2023-03-14T15:14:17.019Z,14.72
2023-03-14T15:16:45.407Z,14.63
2023-03-14T15:19:24.846Z,14.55
2023-03-14T15:21:54.473Z,14.42
2023-03-14T15:24:23.916Z,14.31
2023-03-14T15:26:52.733Z,14.19
2023-03-14T15:29:21.272Z,14.04
2023-03-14T15:31:49.827Z,13.91
2023-03-14T15:34:18.360Z,13.76
2023-03-14T15:36:46.674Z,13.59
2023-03-14T15:39:15.054Z,13.46
2023-03-14T15:41:43.580Z,13.32
2023-03-14T15:44:11.961Z,13.22
2023-03-14T15:46:40.266Z,13.08
2023-03-14T15:49:09.416Z,12.96
2023-03-14T15:51:37.698Z,12.85
2023-03-14T15:54:06.212Z,12.70
2023-03-14T15:56:34.611Z,12.51
2023-03-14T15:59:02.971Z,12.35
2023-03-14T16:01:31.364Z,12.16
2023-03-14T16:03:59.818Z,12.01
2023-03-14T16:06:28.306Z,11.85
2023-03-14T16:08:56.541Z,11.66
2023-03-14T16:11:24.874Z,11.46
2023-03-14T16:13:53.283Z,11.31
2023-03-14T16:16:30.825Z,11.18
2023-03-14T16:18:59.479Z,10.98
2023-03-14T16:21:27.927Z,10.79
2023-03-14T16:23:56.377Z,10.61
2023-03-14T16:26:24.826Z,10.42
2023-03-14T16:28:54.201Z,10.26
2023-03-14T16:31:23.950Z,10.15
2023-03-14T16:33:52.518Z,10.08
2023-03-14T16:36:21.055Z,9.97
2023-03-14T16:38:49.907Z,9.86
2023-03-14T16:41:20.827Z,9.77
2023-03-14T16:43:54.428Z,9.72
2023-03-14T16:46:23.245Z,9.60
2023-03-14T16:49:00.126Z,9.50
2023-03-14T16:51:28.787Z,9.41
2023-03-14T16:53:57.342Z,9.31
2023-03-14T16:56:28.254Z,9.19
2023-03-14T16:58:56.590Z,9.08
2023-03-14T17:01:24.971Z,9.01
2023-03-14T17:03:53.800Z,8.96
2023-03-14T17:06:45.430Z,8.91
2023-03-14T17:09:13.820Z,8.85
2023-03-14T17:11:45.336Z,8.80
2023-03-14T17:14:13.791Z,8.74
2023-03-14T17:16:42.168Z,8.66
2023-03-14T17:19:10.975Z,8.54
2023-03-14T17:21:42.503Z,8.45
2023-03-14T17:24:11.290Z,8.33
2023-03-14T17:26:45.987Z,8.24
2023-03-14T17:29:14.802Z,8.13
2023-03-14T17:31:55.423Z,8.06
2023-03-14T17:34:33.227Z,7.97
2023-03-14T17:37:06.834Z,7.86
2023-03-14T17:39:39.611Z,7.75
2023-03-14T17:42:08.877Z,7.69
2023-03-14T17:44:42.892Z,7.59
2023-03-14T17:47:20.879Z,7.48
2023-03-14T17:49:49.630Z,7.41
2023-03-14T17:52:18.208Z,7.34
2023-03-14T17:54:46.743Z,7.26
2023-03-14T17:57:17.767Z,7.17
2023-03-14T17:59:46.648Z,7.08
2023-03-14T18:02:18.493Z,6.97
2023-03-14T18:05:04.557Z,6.87
2023-03-14T18:07:58.928Z,6.76
2023-03-14T18:10:53.138Z,6.64
2023-03-14T18:13:26.719Z,6.48
2023-03-14T18:16:14.722Z,6.37
2023-03-14T18:18:46.392Z,6.24
2023-03-14T18:21:29.888Z,6.10
2023-03-14T18:23:58.680Z,5.97
2023-03-14T18:26:49.569Z,5.84
2023-03-14T18:29:37.553Z,5.69
2023-03-14T18:32:37.293Z,5.59
2023-03-14T18:35:26.124Z,5.46
2023-03-14T18:38:37.540Z,5.39
2023-03-14T18:41:24.518Z,5.32
2023-03-14T18:43:56.358Z,5.25
2023-03-14T18:46:39.484Z,5.24
2023-03-14T18:49:31.543Z,5.23
2023-03-14T18:52:00.486Z,5.23
2023-03-14T18:54:31.738Z,5.20
2023-03-14T18:57:00.533Z,5.11
2023-03-14T18:59:35.541Z,4.98
2023-03-14T19:02:09.895Z,4.87
2023-03-14T19:04:54.152Z,4.77
2023-03-14T19:08:03.081Z,4.69
2023-03-14T19:11:10.259Z,4.61
2023-03-14T19:14:23.045Z,4.51
2023-03-14T19:17:20.780Z,4.43
2023-03-14T19:19:58.746Z,4.35
2023-03-14T19:22:46.825Z,4.26
2023-03-14T19:26:04.687Z,4.15
2023-03-14T19:28:55.905Z,4.09
2023-03-14T19:32:15.251Z,4.08
2023-03-14T19:35:24.083Z,4.04
2023-03-14T19:37:55.440Z,3.93
2023-03-14T19:40:43.193Z,3.85
2023-03-14T19:43:17.432Z,3.81
2023-03-14T19:45:46.132Z,3.71
2023-03-14T19:48:30.547Z,3.63
2023-03-14T19:51:15.750Z,3.56
2023-03-14T19:53:44.577Z,3.48
2023-03-14T19:56:26.670Z,3.43
2023-03-14T19:59:00.497Z,3.39
2023-03-14T20:01:35.339Z,3.33
2023-03-14T20:04:14.781Z,3.25
2023-03-14T20:07:02.028Z,3.14
2023-03-14T20:09:59.015Z,3.03
2023-03-14T20:12:46.192Z,2.91
2023-03-14T20:15:29.068Z,2.90
2023-03-14T20:18:00.571Z,2.92
2023-03-14T20:20:35.017Z,2.91
2023-03-14T20:23:37.487Z,2.87
2023-03-14T20:26:13.420Z,2.84
2023-03-14T20:29:07.385Z,2.77
2023-03-14T20:31:40.311Z,2.70
2023-03-14T20:34:09.004Z,2.67
2023-03-14T20:36:42.999Z,2.61
2023-03-14T20:39:19.105Z,2.58
2023-03-14T20:41:51.017Z,2.54
2023-03-14T20:44:22.406Z,2.50
2023-03-14T20:47:42.632Z,2.46
2023-03-14T20:50:20.934Z,2.36
2023-03-14T20:53:02.305Z,2.30
2023-03-14T20:55:31.062Z,2.25
2023-03-14T20:58:00.805Z,2.21
2023-03-14T21:00:30.678Z,2.15
2023-03-14T21:03:10.735Z,2.09
2023-03-14T21:06:24.789Z,1.98
2023-03-14T21:09:23.825Z,1.85
2023-03-14T21:12:24.807Z,1.76
2023-03-14T21:15:43.911Z,1.66
2023-03-14T21:18:18.308Z,1.53
2023-03-14T21:21:09.191Z,1.42
2023-03-14T21:23:46.864Z,1.33
2023-03-14T21:26:17.745Z,1.25
2023-03-14T21:28:56.843Z,1.18
2023-03-14T21:31:28.685Z,1.12
2023-03-14T21:34:05.398Z,1.06
2023-03-14T21:36:38.472Z,0.98
2023-03-14T21:39:14.453Z,0.93
2023-03-14T21:41:46.273Z,0.87
2023-03-14T21:44:20.476Z,0.82
2023-03-14T21:47:10.144Z,0.77
2023-03-14T21:49:42.176Z,0.72
2023-03-14T21:52:26.189Z,0.67
2023-03-14T21:54:59.406Z,0.60
2023-03-14T21:57:30.199Z,0.53
2023-03-14T22:00:01.598Z,0.48
2023-03-14T22:03:12.975Z,0.42
2023-03-14T22:06:14.268Z,0.37
2023-03-14T22:08:50.771Z,0.30
2023-03-14T22:11:41.561Z,0.24
2023-03-14T22:15:11.941Z,0.20
2023-03-14T22:18:34.938Z,0.13
2023-03-14T22:22:12.821Z,0.07
2023-03-14T22:25:52.002Z,-0.01
2023-03-14T22:29:06.051Z,-0.06
2023-03-14T22:31:46.767Z,-0.10
2023-03-14T22:34:25.616Z,-0.09
2023-03-14T22:37:23.617Z,-0.08
2023-03-14T22:40:09.520Z,-0.08
2023-03-14T22:43:57.489Z,-0.08
2023-03-14T22:47:01.194Z,-0.10
2023-03-14T22:49:44.612Z,-0.12
2023-03-14T22:53:13.863Z,-0.14
2023-03-14T22:55:50.893Z,-0.16
2023-03-14T22:59:10.140Z,-0.20
2023-03-14T23:01:41.954Z,-0.26
2023-03-14T23:04:34.726Z,-0.30
2023-03-14T23:07:27.911Z,-0.35
2023-03-14T23:10:10.496Z,-0.39
2023-03-14T23:13:13.942Z,-0.41
2023-03-14T23:15:55.481Z,-0.45
2023-03-14T23:19:08.661Z,-0.48
2023-03-14T23:22:10.565Z,-0.53
2023-03-14T23:24:49.952Z,-0.57
2023-03-14T23:27:46.532Z,-0.62
2023-03-14T23:30:48.074Z,-0.67
2023-03-14T23:34:37.276Z,-0.73
2023-03-14T23:38:26.648Z,-0.77
2023-03-14T23:41:38.645Z,-0.78
2023-03-14T23:44:30.343Z,-0.77
2023-03-14T23:47:13.313Z,-0.76
2023-03-14T23:49:51.139Z,-0.71
2023-03-14T23:52:46.983Z,-0.67
2023-03-14T23:56:27.388Z,-0.64
2023-03-14T23:59:26.560Z,-0.61
